Time;durP1;ratioP1;P1;durP2;ratioP2;P2;SDS_P1;SDS_P2;PMS_P1;PMS_P2;Temp;Humidity;BMP_temperature;BMP_pressure;BME280_temperature;BME280_humidity;BME280_pressure;Samples;Min_cycle;Max_cycle;Signal;HPM_P1;HPM_P2
2023/08/07 00:02:22;;;;;;;22.25;12.23;;;;;;;12.11;100.00;101201.88;5090928;28;20032;-67
2023/08/07 00:04:48;;;;;;;20.33;12.20;;;;;;;12.12;100.00;101192.41;5090993;28;20114;-68
2023/08/07 00:07:13;;;;;;;23.25;11.15;;;;;;;12.14;100.00;101205.97;5091041;28;20030;-67
2023/08/07 00:09:38;;;;;;;18.73;10.77;;;;;;;12.14;100.00;101198.47;5090989;28;20032;-67
2023/08/07 00:12:04;;;;;;;18.50;11.40;;;;;;;12.14;100.00;101206.78;5094997;28;20390;-67
2023/08/07 00:14:29;;;;;;;20.52;12.13;;;;;;;12.14;100.00;101201.22;5094822;28;20448;-67
2023/08/07 00:16:55;;;;;;;20.27;11.07;;;;;;;12.14;100.00;101208.75;5094723;28;20024;-67
2023/08/07 00:19:20;;;;;;;20.48;11.55;;;;;;;12.16;100.00;101212.84;5094650;28;20115;-67
2023/08/07 00:21:45;;;;;;;18.92;12.05;;;;;;;12.16;100.00;101198.16;5094636;28;20024;-67
2023/08/07 00:24:10;;;;;;;21.65;11.60;;;;;;;12.15;100.00;101208.41;5094588;28;20472;-67
2023/08/07 00:26:36;;;;;;;20.70;12.30;;;;;;;12.14;100.00;101209.56;5094521;28;20028;-67
2023/08/07 00:29:01;;;;;;;21.25;10.98;;;;;;;12.14;100.00;101215.09;5094295;28;20074;-67
2023/08/07 00:31:30;;;;;;;20.58;11.90;;;;;;;12.13;100.00;101207.09;5094512;28;20024;-67
2023/08/07 00:33:56;;;;;;;22.60;11.15;;;;;;;12.14;100.00;101200.41;5094492;28;20503;-67
2023/08/07 00:36:21;;;;;;;19.77;10.50;;;;;;;12.11;100.00;101207.41;5094381;28;20035;-67
2023/08/07 00:38:46;;;;;;;21.38;11.50;;;;;;;12.11;100.00;101210.19;5094424;28;20050;-67
2023/08/07 00:41:12;;;;;;;19.27;11.85;;;;;;;12.12;100.00;101205.44;5094293;28;20023;-67
2023/08/07 00:43:37;;;;;;;20.73;11.70;;;;;;;12.11;100.00;101204.63;5094258;28;20054;-67
2023/08/07 00:46:02;;;;;;;21.15;11.55;;;;;;;12.12;100.00;101200.75;5094167;28;20059;-67
2023/08/07 00:48:29;;;;;;;20.10;10.25;;;;;;;12.15;100.00;101211.19;5094038;28;20467;-67
2023/08/07 00:50:55;;;;;;;20.13;11.02;;;;;;;12.15;100.00;101211.19;5094117;28;20757;-67
2023/08/07 00:53:20;;;;;;;22.42;11.52;;;;;;;12.15;100.00;101215.94;5093997;28;20020;-67
2023/08/07 00:55:46;;;;;;;19.55;11.40;;;;;;;12.15;100.00;101211.19;5093900;28;20684;-67
2023/08/07 00:58:12;;;;;;;20.75;11.50;;;;;;;12.14;100.00;101206.78;5093929;28;20020;-67
2023/08/07 01:00:38;;;;;;;21.98;11.60;;;;;;;12.16;100.00;101214.81;5093939;28;20040;-67
2023/08/07 01:03:06;;;;;;;20.70;11.65;;;;;;;12.14;100.00;101195.69;5093924;28;20537;-67
2023/08/07 01:05:32;;;;;;;22.70;11.65;;;;;;;12.15;100.00;101208.41;5093942;28;20032;-67
2023/08/07 01:07:57;;;;;;;21.35;11.80;;;;;;;12.16;100.00;101210.06;5093676;28;20035;-67
2023/08/07 01:10:51;;;;;;;19.95;11.48;;;;;;;12.13;100.00;101196.84;5093602;28;20471;-67
2023/08/07 01:13:24;;;;;;;;;;;;;;;12.19;100.00;101219.72;5094087;28;20062;-67
2023/08/07 01:15:54;;;;;;;19.95;11.63;;;;;;;12.17;100.00;101216.47;5093800;28;19912;-67
2023/08/07 01:18:22;;;;;;;22.42;11.05;;;;;;;12.16;100.00;101212.03;5093791;28;20047;-67
2023/08/07 01:20:47;;;;;;;21.80;12.10;;;;;;;12.18;100.00;101223.66;5093184;28;20035;-68
2023/08/07 01:23:12;;;;;;;18.40;11.50;;;;;;;12.17;100.00;101220.03;5093444;28;20036;-67
2023/08/07 01:25:38;;;;;;;23.35;11.65;;;;;;;12.19;100.00;101225.25;5093555;28;20024;-67
2023/08/07 01:28:17;;;;;;;25.80;12.30;;;;;;;12.22;100.00;101227.44;5093194;28;20048;-67
2023/08/07 01:30:49;;;;;;;22.17;11.98;;;;;;;12.20;100.00;101220.56;5093418;28;20608;-68
2023/08/07 01:33:32;;;;;;;22.90;11.70;;;;;;;12.25;100.00;101229.59;5093476;28;20066;-67
2023/08/07 01:36:01;;;;;;;22.38;11.55;;;;;;;12.27;100.00;101238.44;5093480;28;20024;-67
2023/08/07 01:38:28;;;;;;;20.98;11.75;;;;;;;12.29;100.00;101232.59;5093159;28;20497;-67
2023/08/07 01:40:54;;;;;;;21.83;12.05;;;;;;;12.31;100.00;101241.41;5093295;28;20051;-67
2023/08/07 01:43:20;;;;;;;18.30;10.77;;;;;;;12.33;100.00;101236.38;5093110;28;20063;-67
2023/08/07 01:45:45;;;;;;;22.48;11.15;;;;;;;12.31;100.00;101241.41;5093016;28;20059;-68
2023/08/07 01:48:11;;;;;;;21.70;11.50;;;;;;;12.32;100.00;101243.88;5092867;28;20024;-67
2023/08/07 01:50:39;;;;;;;27.05;11.88;;;;;;;12.34;100.00;101238.00;5093009;28;20032;-67
2023/08/07 01:53:05;;;;;;;21.02;11.35;;;;;;;12.36;100.00;101240.50;5092882;28;20479;-67
2023/08/07 01:55:30;;;;;;;20.92;11.43;;;;;;;12.32;100.00;101235.56;5093221;28;20024;-68
2023/08/07 01:57:55;;;;;;;23.00;11.23;;;;;;;12.36;100.00;101249.63;5092838;28;20491;-68
2023/08/07 02:00:21;;;;;;;22.63;11.38;;;;;;;12.35;100.00;101244.41;5092687;28;20365;-67
2023/08/07 02:02:46;;;;;;;23.05;11.30;;;;;;;12.32;100.00;101254.16;5092721;28;20024;-67
2023/08/07 02:05:13;;;;;;;20.15;11.13;;;;;;;12.22;100.00;101249.63;5092649;28;20022;-67
2023/08/07 02:07:38;;;;;;;21.17;11.40;;;;;;;12.17;100.00;101252.50;5092618;28;20024;-67
2023/08/07 02:10:04;;;;;;;20.30;10.93;;;;;;;12.12;100.00;101252.59;5092597;28;20391;-67
2023/08/07 02:12:32;;;;;;;19.90;10.88;;;;;;;12.09;100.00;101251.25;5092589;28;20113;-67
2023/08/07 02:14:58;;;;;;;20.98;11.60;;;;;;;12.06;100.00;101248.28;5092593;28;20032;-67
2023/08/07 02:17:25;;;;;;;21.40;10.55;;;;;;;12.04;100.00;101262.47;5092636;28;20031;-67
2023/08/07 02:19:50;;;;;;;18.67;10.63;;;;;;;12.03;100.00;101263.59;5092290;28;20514;-67
2023/08/07 02:22:15;;;;;;;19.50;11.13;;;;;;;12.02;100.00;101261.94;5092361;28;20031;-67
2023/08/07 02:24:41;;;;;;;22.23;11.77;;;;;;;12.01;100.00;101263.06;5092432;28;20039;-67
2023/08/07 02:27:06;;;;;;;20.90;12.00;;;;;;;12.00;100.00;101262.22;5092039;28;20404;-67
2023/08/07 02:29:34;;;;;;;21.08;11.68;;;;;;;12.00;100.00;101258.66;5092151;28;20757;-68
2023/08/07 02:31:59;;;;;;;21.42;11.75;;;;;;;12.01;100.00;101263.06;5092236;28;20107;-67
2023/08/07 02:34:25;;;;;;;21.42;11.90;;;;;;;11.98;100.00;101258.97;5091528;28;20146;-67
2023/08/07 02:36:50;;;;;;;23.35;12.45;;;;;;;12.02;100.00;101259.97;5092056;28;20028;-68
2023/08/07 02:39:16;;;;;;;21.45;11.55;;;;;;;12.02;100.00;101261.94;5092123;28;20058;-68
2023/08/07 02:41:41;;;;;;;23.08;12.02;;;;;;;12.03;100.00;101260.81;5092141;28;20035;-67
2023/08/07 02:44:07;;;;;;;25.83;12.10;;;;;;;12.02;100.00;101259.16;5091976;28;20028;-67
2023/08/07 02:46:34;;;;;;;20.20;12.10;;;;;;;12.02;100.00;101268.31;5091947;28;20032;-67
2023/08/07 02:48:59;;;;;;;21.23;11.32;;;;;;;12.04;100.00;101256.09;5092065;28;20032;-68
2023/08/07 02:51:25;;;;;;;22.73;11.18;;;;;;;12.07;100.00;101263.81;5091940;28;20030;-68
2023/08/07 02:53:50;;;;;;;22.35;11.50;;;;;;;12.07;100.00;101256.28;5091885;28;20472;-67
2023/08/07 02:56:15;;;;;;;24.25;11.73;;;;;;;12.08;100.00;101255.16;5091800;28;20545;-67
2023/08/07 02:58:40;;;;;;;20.33;11.90;;;;;;;12.10;100.00;101271.47;5091711;28;20081;-67
2023/08/07 03:01:06;;;;;;;22.15;12.20;;;;;;;12.10;100.00;101272.31;5091662;28;20411;-67
2023/08/07 03:03:32;;;;;;;21.05;11.80;;;;;;;12.11;100.00;101262.03;5091643;28;20165;-67
2023/08/07 03:05:57;;;;;;;20.95;10.93;;;;;;;12.12;100.00;101260.91;5091790;28;20127;-67
2023/08/07 03:08:23;;;;;;;20.05;11.60;;;;;;;12.12;100.00;101264.53;5091652;28;20487;-67
2023/08/07 03:10:53;;;;;;;22.85;11.95;;;;;;;12.13;100.00;101262.56;5091688;28;20057;-68
2023/08/07 03:13:19;;;;;;;22.75;11.63;;;;;;;12.13;100.00;101259.78;5091564;28;20053;-67
2023/08/07 03:15:44;;;;;;;20.92;11.30;;;;;;;12.12;100.00;101250.66;5091547;28;20040;-68
2023/08/07 03:18:09;;;;;;;24.98;12.43;;;;;;;12.15;100.00;101254.75;5091402;28;20549;-68
2023/08/07 03:20:37;;;;;;;21.40;13.00;;;;;;;12.16;100.00;101257.22;5091434;28;20028;-68
2023/08/07 03:23:03;;;;;;;22.45;12.43;;;;;;;12.19;100.00;101250.22;5091409;28;20023;-68
2023/08/07 03:25:28;;;;;;;20.75;12.93;;;;;;;12.20;100.00;101254.66;5091311;28;20036;-68
2023/08/07 03:27:54;;;;;;;22.98;12.10;;;;;;;12.17;100.00;101239.44;5090932;28;20052;-68
2023/08/07 03:30:19;;;;;;;20.45;12.88;;;;;;;12.23;100.00;101242.16;5091197;28;20067;-68
2023/08/07 03:32:44;;;;;;;21.92;12.98;;;;;;;12.24;100.00;101243.75;5091227;28;20206;-67
2023/08/07 03:35:10;;;;;;;20.63;11.70;;;;;;;12.23;100.00;101245.72;5091205;28;20109;-68
2023/08/07 03:37:35;;;;;;;21.52;11.30;;;;;;;12.23;100.00;101245.72;5091247;28;20028;-68
2023/08/07 03:40:00;;;;;;;20.08;11.85;;;;;;;12.21;100.00;101231.34;5091075;28;20032;-68
2023/08/07 03:42:25;;;;;;;20.88;11.98;;;;;;;12.23;100.00;101240.19;5091094;28;20036;-68
2023/08/07 03:44:51;;;;;;;20.80;11.02;;;;;;;12.23;100.00;101242.94;5093287;28;20036;-68
2023/08/07 03:47:16;;;;;;;23.35;11.40;;;;;;;12.24;100.00;101250.16;5095336;28;20111;-68
2023/08/07 03:49:41;;;;;;;21.83;11.75;;;;;;;12.26;100.00;101250.66;5095170;28;20336;-69
2023/08/07 03:52:07;;;;;;;20.40;11.18;;;;;;;12.26;100.00;101244.28;5095284;28;20503;-67
2023/08/07 03:54:32;;;;;;;20.20;11.95;;;;;;;12.27;100.00;101251.47;5095326;28;20066;-67
2023/08/07 03:56:57;;;;;;;24.25;12.10;;;;;;;12.27;100.00;101244.00;5095175;28;20032;-68
2023/08/07 03:59:23;;;;;;;19.90;11.60;;;;;;;12.29;100.00;101254.78;5095112;28;20051;-67
2023/08/07 04:01:48;;;;;;;22.60;11.68;;;;;;;12.29;100.00;101255.59;5095105;28;20545;-68
2023/08/07 04:04:14;;;;;;;22.25;11.98;;;;;;;12.33;100.00;101253.84;5094941;28;20024;-67
2023/08/07 04:06:39;;;;;;;22.52;12.68;;;;;;;12.35;100.00;101247.16;5094965;28;20028;-67
2023/08/07 04:09:04;;;;;;;24.30;11.93;;;;;;;12.35;100.00;101242.44;5094764;28;20016;-68
2023/08/07 04:11:30;;;;;;;20.25;12.65;;;;;;;12.37;100.00;101248.50;5094671;28;20389;-68
2023/08/07 04:13:55;;;;;;;20.92;12.18;;;;;;;12.37;100.00;101248.50;5094425;28;20441;-68
2023/08/07 04:16:21;;;;;;;20.75;12.65;;;;;;;12.40;100.00;101250.66;5094465;28;20052;-67
2023/08/07 04:18:47;;;;;;;19.98;12.02;;;;;;;12.39;100.00;101249.03;5094704;28;20475;-67
2023/08/07 04:21:12;;;;;;;22.33;12.30;;;;;;;12.43;100.00;101252.00;5094578;28;20089;-67
2023/08/07 04:23:37;;;;;;;23.85;12.15;;;;;;;12.43;100.00;101265.88;5094613;28;20028;-68
2023/08/07 04:26:03;;;;;;;20.58;11.07;;;;;;;12.46;100.00;101251.38;5094499;28;20503;-67
2023/08/07 04:28:29;;;;;;;22.02;11.25;;;;;;;12.45;100.00;101252.50;5094662;28;20056;-67
2023/08/07 04:30:54;;;;;;;19.55;10.80;;;;;;;12.45;100.00;101256.09;5094515;28;20020;-67
2023/08/07 04:33:20;;;;;;;20.63;11.52;;;;;;;12.46;100.00;101248.63;5093129;28;20096;-67
2023/08/07 04:35:46;;;;;;;22.75;11.60;;;;;;;12.46;100.00;101254.16;5094425;28;20521;-68
2023/08/07 04:38:15;;;;;;;22.58;11.27;;;;;;;12.46;100.00;101262.50;5094513;28;20027;-67
2023/08/07 04:40:47;;;;;;;19.65;10.98;;;;;;;12.45;100.00;101271.94;5094219;28;20035;-68
2023/08/07 04:43:14;;;;;;;20.98;11.45;;;;;;;12.42;100.00;101270.59;5094257;28;20047;-67
2023/08/07 04:45:39;;;;;;;19.33;11.63;;;;;;;12.43;100.00;101274.19;5094310;28;20035;-68
2023/08/07 04:48:06;;;;;;;20.13;11.57;;;;;;;12.44;100.00;101275.84;5094163;28;20024;-68
2023/08/07 04:50:31;;;;;;;21.23;11.20;;;;;;;12.43;100.00;101277.78;5094230;28;20028;-67
2023/08/07 04:52:57;;;;;;;18.65;11.10;;;;;;;12.43;100.00;101266.69;5094009;28;20106;-67
2023/08/07 04:55:22;;;;;;;18.95;11.55;;;;;;;12.44;100.00;101273.88;5093547;28;20028;-68
2023/08/07 04:57:48;;;;;;;20.50;11.70;;;;;;;12.45;100.00;101261.66;5093560;28;20020;-68
2023/08/07 05:00:14;;;;;;;19.10;10.88;;;;;;;12.46;100.00;101274.41;5093869;28;20391;-67
2023/08/07 05:02:40;;;;;;;21.48;11.38;;;;;;;12.47;100.00;101272.44;5093837;28;20062;-67
2023/08/07 05:05:06;;;;;;;20.15;12.02;;;;;;;12.49;100.00;101281.28;5093887;28;20024;-68
2023/08/07 05:07:33;;;;;;;21.35;10.75;;;;;;;12.44;100.00;101271.09;5093727;28;20036;-67
2023/08/07 05:09:59;;;;;;;18.35;11.38;;;;;;;12.52;100.00;101265.94;5093780;28;20048;-68
2023/08/07 05:12:25;;;;;;;18.42;11.13;;;;;;;12.52;100.00;101283.44;5093970;28;20031;-67
2023/08/07 05:14:50;;;;;;;18.95;11.18;;;;;;;12.55;100.00;101280.06;5093714;28;20032;-69
2023/08/07 05:17:15;;;;;;;20.33;10.85;;;;;;;12.56;100.00;101275.31;5092082;28;20043;-68
2023/08/07 05:19:40;;;;;;;19.13;11.23;;;;;;;12.57;100.00;101279.75;5093545;28;20042;-68
2023/08/07 05:22:06;;;;;;;20.27;11.20;;;;;;;12.58;100.00;101278.63;5093511;28;20028;-68
2023/08/07 05:24:38;;;;;;;18.38;10.40;;;;;;;12.58;100.00;101287.75;5092098;28;20072;-67
2023/08/07 05:27:05;;;;;;;19.58;10.82;;;;;;;12.59;100.00;101296.91;5091961;28;20467;-68
2023/08/07 05:29:30;;;;;;;17.83;10.60;;;;;;;12.60;100.00;101298.56;5093594;28;20448;-67
2023/08/07 05:31:55;;;;;;;20.67;10.73;;;;;;;12.60;100.00;101306.88;5093681;28;20039;-68
2023/08/07 05:34:21;;;;;;;21.15;11.38;;;;;;;12.59;100.00;101314.38;5093710;28;20522;-67
2023/08/07 05:36:46;;;;;;;20.38;10.77;;;;;;;12.56;100.00;101301.13;5093104;28;20383;-68
2023/08/07 05:39:11;;;;;;;20.48;11.27;;;;;;;12.57;100.00;101313.03;5093341;28;20835;-67
2023/08/07 05:41:38;;;;;;;20.38;10.80;;;;;;;12.57;100.00;101319.41;5093387;28;20480;-68
2023/08/07 05:44:05;;;;;;;19.77;10.43;;;;;;;12.59;100.00;101314.38;5093525;28;20804;-67
2023/08/07 05:46:30;;;;;;;17.77;10.82;;;;;;;12.60;100.00;101321.56;5093116;28;20024;-67
2023/08/07 05:48:56;;;;;;;22.10;10.63;;;;;;;12.63;100.00;101317.34;5092875;28;20053;-67
2023/08/07 05:51:21;;;;;;;19.35;10.90;;;;;;;12.64;100.00;101332.88;5092965;28;20053;-67
2023/08/07 05:53:46;;;;;;;21.92;11.48;;;;;;;12.64;100.00;101325.38;5092950;28;20028;-68
2023/08/07 05:56:12;;;;;;;21.17;11.20;;;;;;;12.63;100.00;101331.22;5092770;28;20028;-68
2023/08/07 05:58:37;;;;;;;20.10;10.82;;;;;;;12.62;100.00;101327.66;5092782;28;20153;-68
2023/08/07 06:01:02;;;;;;;21.92;11.25;;;;;;;12.60;100.00;101327.13;5092776;28;20111;-68
2023/08/07 06:03:28;;;;;;;19.70;11.23;;;;;;;12.61;100.00;101333.50;5092907;28;20684;-67
2023/08/07 06:05:53;;;;;;;21.70;10.98;;;;;;;12.58;100.00;101332.16;5092660;28;20039;-68
2023/08/07 06:08:19;;;;;;;21.88;11.23;;;;;;;12.61;100.00;101328.78;5091305;28;20020;-67
2023/08/07 06:10:44;;;;;;;22.20;11.25;;;;;;;12.59;100.00;101325.47;5092551;28;20046;-67
2023/08/07 06:13:09;;;;;;;22.88;11.52;;;;;;;12.62;100.00;101338.75;5092464;28;20032;-67
2023/08/07 06:15:35;;;;;;;20.42;11.30;;;;;;;12.65;100.00;101340.06;5092519;28;20594;-68
2023/08/07 06:18:00;;;;;;;19.27;10.82;;;;;;;12.66;100.00;101340.91;5092490;28;20047;-68
2023/08/07 06:20:26;;;;;;;21.40;11.98;;;;;;;12.69;100.00;101346.66;5092329;28;20028;-67
2023/08/07 06:22:51;;;;;;;21.90;11.20;;;;;;;12.70;100.00;101342.78;5092400;28;20027;-68
2023/08/07 06:25:16;;;;;;;21.30;11.20;;;;;;;12.70;100.00;101340.00;5092307;28;20050;-67
2023/08/07 06:27:42;;;;;;;20.25;11.50;;;;;;;12.72;100.00;101346.03;5091982;28;20129;-68
2023/08/07 06:30:07;;;;;;;22.10;10.93;;;;;;;12.75;100.00;101356.53;5092309;28;20122;-68
2023/08/07 06:32:33;;;;;;;18.42;10.63;;;;;;;12.77;100.00;101365.38;5092169;28;20452;-68
2023/08/07 06:34:58;;;;;;;20.63;11.13;;;;;;;12.83;100.00;101360.56;5092296;28;20036;-67
2023/08/07 06:37:23;;;;;;;21.33;11.02;;;;;;;12.88;100.00;101354.06;5092038;28;20388;-68
2023/08/07 06:39:49;;;;;;;20.77;11.32;;;;;;;12.94;100.00;101363.94;5092061;28;20484;-68
2023/08/07 06:42:14;;;;;;;21.27;10.95;;;;;;;12.99;100.00;101369.38;5092064;28;20486;-68
2023/08/07 06:44:39;;;;;;;22.27;11.25;;;;;;;13.05;100.00;101375.63;5092030;28;20036;-68
2023/08/07 06:47:05;;;;;;;20.90;11.00;;;;;;;13.11;100.00;101374.41;5091874;28;20020;-67
2023/08/07 06:49:31;;;;;;;20.35;11.30;;;;;;;13.19;100.00;101376.47;5091609;28;20054;-68
2023/08/07 06:51:57;;;;;;;21.85;11.00;;;;;;;13.26;100.00;101387.16;5091824;28;20024;-68
2023/08/07 06:54:23;;;;;;;20.73;11.25;;;;;;;13.32;100.00;101371.19;5091715;28;20024;-68
2023/08/07 06:56:48;;;;;;;18.02;10.60;;;;;;;13.41;100.00;101378.50;5091999;28;20393;-68
2023/08/07 06:59:14;;;;;;;21.60;11.15;;;;;;;13.48;100.00;101380.84;5091647;28;20456;-68
2023/08/07 07:01:39;;;;;;;19.77;11.07;;;;;;;13.54;100.00;101385.16;5091560;28;20024;-67
2023/08/07 07:04:04;;;;;;;19.67;10.82;;;;;;;13.55;100.00;101386.00;5091486;28;20032;-68
2023/08/07 07:06:30;;;;;;;22.48;11.40;;;;;;;13.51;100.00;101391.31;5090139;28;20032;-68
2023/08/07 07:08:55;;;;;;;19.85;11.07;;;;;;;13.59;100.00;101398.09;5091311;28;20536;-67
2023/08/07 07:11:23;;;;;;;17.15;11.10;;;;;;;13.70;100.00;101407.03;5091445;28;20020;-67
2023/08/07 07:13:49;;;;;;;19.85;10.95;;;;;;;13.77;100.00;101413.00;5091444;28;20484;-68
2023/08/07 07:16:15;;;;;;;22.52;11.88;;;;;;;13.78;100.00;101420.22;5091381;28;20061;-68
2023/08/07 07:18:40;;;;;;;20.30;11.15;;;;;;;13.87;100.00;101414.69;5090999;28;20036;-68
2023/08/07 07:21:05;;;;;;;21.60;10.90;;;;;;;13.92;100.00;101413.75;5091305;28;20547;-68
2023/08/07 07:23:30;;;;;;;21.30;11.27;;;;;;;13.98;100.00;101418.88;5091233;28;20020;-68
2023/08/07 07:25:57;;;;;;;19.55;11.23;;;;;;;13.97;100.00;101420.03;5091273;28;20039;-68
2023/08/07 07:28:23;;;;;;;22.38;11.30;;;;;;;14.07;100.00;101426.47;5089453;28;20189;-68
2023/08/07 07:30:50;;;;;;;20.88;11.10;;;;;;;14.07;100.00;101432.88;5091166;28;20517;-69
2023/08/07 07:33:16;;;;;;;16.70;10.85;;;;;;;13.98;100.00;101438.34;5091101;28;20111;-68
2023/08/07 07:35:42;;;;;;;20.73;11.85;;;;;;;13.93;100.00;101440.44;5091075;28;20039;-68
2023/08/07 07:38:07;;;;;;;16.77;10.90;;;;;;;14.04;100.00;101442.66;5091107;28;20384;-68
2023/08/07 07:40:34;;;;;;;21.27;11.60;;;;;;;14.20;100.00;101436.72;5091029;28;20131;-69
2023/08/07 07:42:59;;;;;;;21.15;11.38;;;;;;;14.13;100.00;101453.03;5089715;28;20016;-68
2023/08/07 07:45:25;;;;;;;18.55;11.40;;;;;;;14.04;100.00;101456.56;5091100;28;20085;-68
2023/08/07 07:47:50;;;;;;;18.25;11.10;;;;;;;13.98;100.00;101463.41;5091208;28;20032;-68
2023/08/07 07:50:15;;;;;;;19.13;11.50;;;;;;;13.83;100.00;101463.75;5091225;28;20024;-68
2023/08/07 07:52:41;;;;;;;19.90;11.65;;;;;;;13.79;100.00;101473.84;5091168;28;20043;-67
2023/08/07 07:55:08;;;;;;;19.65;11.40;;;;;;;13.76;100.00;101468.91;5091254;28;20040;-67
2023/08/07 07:57:34;;;;;;;19.13;11.65;;;;;;;13.64;100.00;101475.84;5091340;28;20478;-67
2023/08/07 07:59:59;;;;;;;17.40;11.50;;;;;;;13.50;100.00;101473.09;5091063;28;20024;-68
2023/08/07 08:02:24;;;;;;;18.60;11.70;;;;;;;13.58;100.00;101471.53;5091108;28;20396;-68
2023/08/07 08:04:51;;;;;;;20.02;11.95;;;;;;;13.57;100.00;101467.09;5090969;28;20024;-67
2023/08/07 08:07:16;;;;;;;20.15;11.48;;;;;;;13.66;100.00;101467.19;5090927;28;20031;-67
2023/08/07 08:09:42;;;;;;;20.58;12.50;;;;;;;13.66;100.00;101464.41;5089583;28;20027;-68
2023/08/07 08:12:08;;;;;;;20.05;11.73;;;;;;;13.71;100.00;101476.25;5090925;28;20032;-68
2023/08/07 08:14:33;;;;;;;19.58;11.45;;;;;;;13.72;100.00;101477.91;5090795;28;20046;-67
2023/08/07 08:16:58;;;;;;;19.80;11.95;;;;;;;13.73;100.00;101471.19;5090761;28;20039;-68
2023/08/07 08:19:23;;;;;;;22.08;12.18;;;;;;;13.80;100.00;101475.50;5090683;28;20035;-68
2023/08/07 08:21:49;;;;;;;20.48;12.38;;;;;;;13.95;100.00;101475.13;5090526;28;20032;-68
2023/08/07 08:24:14;;;;;;;20.92;12.38;;;;;;;14.03;100.00;101476.38;5090654;28;20381;-68
2023/08/07 08:26:39;;;;;;;21.30;12.05;;;;;;;14.06;100.00;101484.09;5090647;28;20028;-68
2023/08/07 08:29:07;;;;;;;21.00;11.57;;;;;;;14.14;100.00;101477.78;5090550;28;20033;-68
2023/08/07 08:31:33;;;;;;;21.83;11.63;;;;;;;14.20;100.00;101470.13;5092382;28;20024;-68
2023/08/07 08:33:58;;;;;;;19.52;11.52;;;;;;;14.23;100.00;101485.34;5094449;28;20039;-68
2023/08/07 08:36:24;;;;;;;20.27;11.57;;;;;;;14.29;100.00;101484.94;5094272;28;20023;-67
2023/08/07 08:38:51;;;;;;;21.40;11.40;;;;;;;14.40;100.00;101491.03;5094077;28;20032;-67
2023/08/07 08:41:17;;;;;;;19.50;11.40;;;;;;;14.59;100.00;101490.03;5094253;28;20035;-68
2023/08/07 08:43:46;;;;;;;21.85;11.60;;;;;;;14.80;100.00;101496.75;5094085;28;20028;-68
2023/08/07 08:46:14;;;;;;;21.67;11.30;;;;;;;15.05;100.00;101483.25;5093902;28;20046;-68
2023/08/07 08:48:41;;;;;;;22.17;11.10;;;;;;;15.11;100.00;101490.31;5093927;28;20696;-68
2023/08/07 08:51:08;;;;;;;20.23;11.40;;;;;;;15.15;100.00;101484.13;5093960;28;20036;-68
2023/08/07 08:53:34;;;;;;;22.45;11.35;;;;;;;15.28;100.00;101492.34;5093843;28;20028;-68
2023/08/07 08:56:01;;;;;;;16.90;10.50;;;;;;;15.31;100.00;101501.22;5092392;28;20043;-68
2023/08/07 08:58:28;;;;;;;20.75;11.02;;;;;;;15.26;100.00;101503.00;5093768;28;20479;-68
2023/08/07 09:00:53;;;;;;;19.95;10.57;;;;;;;15.24;98.34;101493.31;5093778;28;20027;-68
2023/08/07 09:03:19;;;;;;;23.13;11.23;;;;;;;15.30;96.13;101511.56;5093757;28;20024;-68
2023/08/07 09:05:47;;;;;;;18.08;10.40;;;;;;;15.31;91.37;101506.81;5093764;28;20024;-69
2023/08/07 09:08:12;;;;;;;22.00;10.88;;;;;;;15.40;92.47;101496.50;5093505;28;20392;-68
2023/08/07 09:10:38;;;;;;;20.85;11.10;;;;;;;15.46;88.55;101495.19;5093479;28;20020;-68
2023/08/07 09:13:09;;;;;;;20.35;10.70;;;;;;;15.47;87.01;101491.28;5093576;28;20048;-68
2023/08/07 09:15:36;;;;;;;19.83;10.65;;;;;;;15.63;87.53;101511.16;5093484;28;20024;-68
2023/08/07 09:18:07;;;;;;;19.48;10.57;;;;;;;15.72;86.65;101503.63;5093402;28;20112;-68
2023/08/07 09:20:34;;;;;;;16.88;10.00;;;;;;;15.85;83.95;101509.44;5093450;28;20030;-68
2023/08/07 09:22:59;;;;;;;18.30;10.70;;;;;;;15.94;80.25;101504.69;5093495;28;20024;-68
2023/08/07 09:25:35;;;;;;;19.10;10.50;;;;;;;16.07;78.88;101502.88;5093355;28;20383;-69
2023/08/07 09:28:04;;;;;;;21.48;10.73;;;;;;;16.19;77.10;101514.22;5093012;28;20408;-69
2023/08/07 09:30:31;;;;;;;19.95;9.93;;;;;;;16.21;76.87;101505.50;5091662;28;20406;-69
2023/08/07 09:32:58;;;;;;;18.20;10.27;;;;;;;16.32;76.63;101506.00;5093128;28;20059;-69
2023/08/07 09:35:23;;;;;;;18.98;10.95;;;;;;;16.50;75.08;101560.69;5093182;28;20052;-69
2023/08/07 09:37:49;;;;;;;19.27;10.20;;;;;;;16.52;73.13;101515.69;5092979;28;20059;-69
2023/08/07 09:40:16;;;;;;;19.65;9.77;;;;;;;16.46;74.00;101515.03;5093047;28;20115;-69
2023/08/07 09:42:42;;;;;;;18.23;10.38;;;;;;;16.38;75.61;101525.03;5092842;28;20047;-70
2023/08/07 09:45:26;;;;;;;17.50;10.32;;;;;;;16.35;76.49;101516.50;5092871;28;20024;-69
2023/08/07 09:48:06;;;;;;;18.23;10.23;;;;;;;16.46;73.64;101525.38;5092812;28;20027;-69
2023/08/07 09:50:32;;;;;;;19.10;10.02;;;;;;;16.52;74.62;101518.47;5093049;28;20441;-69
2023/08/07 09:52:57;;;;;;;20.10;10.10;;;;;;;16.67;73.93;101517.94;5091444;28;20028;-69
2023/08/07 09:55:23;;;;;;;18.67;10.30;;;;;;;16.67;69.87;101534.72;5092714;28;20028;-69
2023/08/07 09:57:49;;;;;;;17.70;10.63;;;;;;;16.55;70.33;101519.78;5093116;28;20154;-69
2023/08/07 10:00:16;;;;;;;17.85;9.98;;;;;;;16.65;71.20;101527.81;5092868;28;20054;-69
2023/08/07 10:02:45;;;;;;;20.92;10.25;;;;;;;16.75;69.22;101521.88;5092716;28;20461;-69
2023/08/07 10:05:10;;;;;;;19.35;10.05;;;;;;;16.87;70.18;101511.97;5092524;28;20024;-69
2023/08/07 10:07:38;;;;;;;18.38;9.65;;;;;;;16.94;67.18;101537.50;5092507;28;20032;-69
2023/08/07 10:10:04;;;;;;;19.17;10.27;;;;;;;17.03;68.09;101534.66;5092234;28;20039;-69
2023/08/07 10:12:29;;;;;;;18.30;9.80;;;;;;;17.07;63.43;101530.03;5092562;28;20020;-69
2023/08/07 10:14:55;;;;;;;16.70;9.60;;;;;;;17.14;62.00;101533.13;5092484;28;20445;-69
2023/08/07 10:17:22;;;;;;;19.92;9.60;;;;;;;17.14;62.34;101536.75;5092375;28;20039;-69
2023/08/07 10:19:48;;;;;;;17.30;9.88;;;;;;;17.21;63.28;101535.41;5092288;28;20456;-69
2023/08/07 10:22:15;;;;;;;16.42;9.40;;;;;;;17.36;64.38;101526.47;5092289;28;20103;-68
2023/08/07 10:24:43;;;;;;;15.73;10.10;;;;;;;17.57;62.86;101542.50;5092338;28;20093;-69
2023/08/07 10:27:11;;;;;;;15.00;9.55;;;;;;;17.53;62.54;101530.31;5092150;28;20051;-68
2023/08/07 10:29:37;;;;;;;14.65;8.77;;;;;;;17.65;64.93;101538.81;5092235;28;20058;-69
2023/08/07 10:32:04;;;;;;;17.30;8.75;;;;;;;17.74;62.90;101538.78;5090707;28;20028;-68
2023/08/07 10:34:33;;;;;;;17.30;9.68;;;;;;;17.60;62.13;101551.03;5092132;28;20027;-68
2023/08/07 10:36:58;;;;;;;16.02;9.85;;;;;;;17.57;61.41;101556.47;5091883;28;20024;-66
2023/08/07 10:39:24;;;;;;;16.73;10.07;;;;;;;17.75;62.96;101546.03;5090589;28;20479;-67
2023/08/07 10:41:53;;;;;;;17.70;9.30;;;;;;;17.90;63.46;101539.81;5091748;28;20032;-67
2023/08/07 10:44:30;;;;;;;17.30;10.13;;;;;;;18.09;60.92;101560.97;5092254;28;20031;-67
2023/08/07 10:46:57;;;;;;;15.60;10.30;;;;;;;18.25;60.73;101544.38;5091852;28;20039;-67
2023/08/07 10:49:34;;;;;;;16.75;10.43;;;;;;;18.49;59.56;101540.88;5091747;28;20023;-67
2023/08/07 10:52:14;;;;;;;16.67;9.90;;;;;;;18.59;59.25;101548.03;5092085;28;20055;-68
2023/08/07 10:54:44;;;;;;;16.95;9.50;;;;;;;18.35;56.33;101569.19;5091463;28;20468;-68
2023/08/07 10:57:12;;;;;;;17.98;9.77;;;;;;;18.19;57.83;101554.97;5091720;28;20032;-67
2023/08/07 10:59:38;;;;;;;18.58;10.13;;;;;;;18.29;57.61;101553.72;5091715;28;20072;-67
2023/08/07 11:02:11;;;;;;;17.77;9.43;;;;;;;18.36;57.65;101572.78;5091587;28;20039;-67